Time;durP1;ratioP1;P1;durP2;ratioP2;P2;SDS_P1;SDS_P2;PMS_P1;PMS_P2;Temp;Humidity;BMP_temperature;BMP_pressure;BME280_temperature;BME280_humidity;BME280_pressure;Samples;Min_cycle;Max_cycle;Signal;HPM_P1;HPM_P2
2019/10/15 00:00:22;;;;;;;11.9;7.6;;;;;;;;;;;;;
2019/10/15 00:02:45;;;;;;;11.2;7.3;;;;;;;;;;;;;
2019/10/15 00:05:10;;;;;;;11.6;7.9;;;;;;;;;;;;;
2019/10/15 00:07:36;;;;;;;11.3;7.9;;;;;;;;;;;;;
2019/10/15 00:10:00;;;;;;;11.4;7.8;;;;;;;;;;;;;
2019/10/15 00:12:26;;;;;;;9.6;7.6;;;;;;;;;;;;;
2019/10/15 00:14:51;;;;;;;12.4;7.4;;;;;;;;;;;;;
2019/10/15 00:17:16;;;;;;;9.9;6.8;;;;;;;;;;;;;
2019/10/15 00:19:41;;;;;;;9.9;7.3;;;;;;;;;;;;;
2019/10/15 00:22:06;;;;;;;12.4;7.7;;;;;;;;;;;;;
2019/10/15 00:24:31;;;;;;;12.5;7.3;;;;;;;;;;;;;
2019/10/15 00:26:56;;;;;;;11.2;7.3;;;;;;;;;;;;;
2019/10/15 00:29:21;;;;;;;11.1;7.4;;;;;;;;;;;;;
2019/10/15 00:31:46;;;;;;;13.1;7.6;;;;;;;;;;;;;
2019/10/15 00:34:11;;;;;;;10.9;8.3;;;;;;;;;;;;;
2019/10/15 00:36:37;;;;;;;11.9;7.8;;;;;;;;;;;;;
2019/10/15 00:39:02;;;;;;;10.9;6.9;;;;;;;;;;;;;
2019/10/15 00:41:27;;;;;;;12.3;7.4;;;;;;;;;;;;;
2019/10/15 00:43:52;;;;;;;11.5;7.4;;;;;;;;;;;;;
2019/10/15 00:46:17;;;;;;;10.9;7.7;;;;;;;;;;;;;
2019/10/15 00:48:42;;;;;;;10.5;7.2;;;;;;;;;;;;;
2019/10/15 00:51:07;;;;;;;10.3;5.9;;;;;;;;;;;;;
2019/10/15 00:53:32;;;;;;;8.8;5.8;;;;;;;;;;;;;
2019/10/15 00:55:58;;;;;;;9;5.6;;;;;;;;;;;;;
2019/10/15 00:58:23;;;;;;;9.2;5.5;;;;;;;;;;;;;
2019/10/15 01:00:48;;;;;;;10.3;5.9;;;;;;;;;;;;;
2019/10/15 01:03:13;;;;;;;10.5;5.3;;;;;;;;;;;;;
2019/10/15 01:05:38;;;;;;;10.7;5.2;;;;;;;;;;;;;
2019/10/15 01:08:03;;;;;;;9.7;5.8;;;;;;;;;;;;;
2019/10/15 01:10:28;;;;;;;8.2;5.7;;;;;;;;;;;;;
2019/10/15 01:12:53;;;;;;;9.3;5.5;;;;;;;;;;;;;
2019/10/15 01:15:18;;;;;;;9.2;5.3;;;;;;;;;;;;;
2019/10/15 01:17:43;;;;;;;10.5;6.2;;;;;;;;;;;;;
2019/10/15 01:20:08;;;;;;;9.9;6.4;;;;;;;;;;;;;
2019/10/15 01:22:34;;;;;;;10.5;6.6;;;;;;;;;;;;;
2019/10/15 01:24:59;;;;;;;9.4;6.2;;;;;;;;;;;;;
2019/10/15 01:27:24;;;;;;;9.5;6.7;;;;;;;;;;;;;
2019/10/15 01:29:49;;;;;;;10.3;6.6;;;;;;;;;;;;;
2019/10/15 01:32:14;;;;;;;8.8;7;;;;;;;;;;;;;
2019/10/15 01:34:39;;;;;;;10.8;6.8;;;;;;;;;;;;;
2019/10/15 01:37:04;;;;;;;10.8;6.5;;;;;;;;;;;;;
2019/10/15 01:39:29;;;;;;;8.8;6.1;;;;;;;;;;;;;
2019/10/15 01:41:55;;;;;;;10.4;5.9;;;;;;;;;;;;;
2019/10/15 01:44:20;;;;;;;10.5;5.7;;;;;;;;;;;;;
2019/10/15 01:46:45;;;;;;;11;5.8;;;;;;;;;;;;;
2019/10/15 01:49:10;;;;;;;8.2;5.9;;;;;;;;;;;;;
2019/10/15 01:51:35;;;;;;;10;6.3;;;;;;;;;;;;;
2019/10/15 01:54:00;;;;;;;11.1;6.3;;;;;;;;;;;;;
2019/10/15 01:56:25;;;;;;;10.6;6.1;;;;;;;;;;;;;
2019/10/15 01:58:50;;;;;;;9.6;6.2;;;;;;;;;;;;;
2019/10/15 02:01:16;;;;;;;11.7;6.3;;;;;;;;;;;;;
2019/10/15 02:03:41;;;;;;;11.1;6.5;;;;;;;;;;;;;
2019/10/15 02:06:06;;;;;;;9.9;6.5;;;;;;;;;;;;;
2019/10/15 02:08:31;;;;;;;10.3;6.6;;;;;;;;;;;;;
2019/10/15 02:10:56;;;;;;;10.4;6.1;;;;;;;;;;;;;
2019/10/15 02:13:21;;;;;;;10.3;6.5;;;;;;;;;;;;;
2019/10/15 02:15:46;;;;;;;9.6;6.3;;;;;;;;;;;;;
2019/10/15 02:18:11;;;;;;;10.5;5.8;;;;;;;;;;;;;
2019/10/15 02:20:36;;;;;;;11;6;;;;;;;;;;;;;
2019/10/15 02:23:01;;;;;;;9.6;5.8;;;;;;;;;;;;;
2019/10/15 02:25:26;;;;;;;9.2;6;;;;;;;;;;;;;
2019/10/15 02:27:51;;;;;;;10.2;5.9;;;;;;;;;;;;;
2019/10/15 02:30:16;;;;;;;9;5.8;;;;;;;;;;;;;
2019/10/15 02:32:41;;;;;;;10.1;5.7;;;;;;;;;;;;;
2019/10/15 02:35:06;;;;;;;10.3;5.6;;;;;;;;;;;;;
2019/10/15 02:37:31;;;;;;;8;6;;;;;;;;;;;;;
2019/10/15 02:39:57;;;;;;;8.9;5.7;;;;;;;;;;;;;
2019/10/15 02:42:22;;;;;;;11.7;5.7;;;;;;;;;;;;;
2019/10/15 02:44:47;;;;;;;9.6;5.5;;;;;;;;;;;;;
2019/10/15 02:47:12;;;;;;;10.9;5.6;;;;;;;;;;;;;
2019/10/15 02:49:37;;;;;;;10.3;5.8;;;;;;;;;;;;;
2019/10/15 02:52:03;;;;;;;8.2;5.6;;;;;;;;;;;;;
2019/10/15 02:54:28;;;;;;;9;5.9;;;;;;;;;;;;;
2019/10/15 02:56:53;;;;;;;10.8;6.3;;;;;;;;;;;;;
2019/10/15 02:59:18;;;;;;;10.8;5.8;;;;;;;;;;;;;
2019/10/15 03:01:43;;;;;;;8;5.7;;;;;;;;;;;;;
2019/10/15 03:04:08;;;;;;;8.4;5.7;;;;;;;;;;;;;
2019/10/15 03:06:33;;;;;;;8.6;5.4;;;;;;;;;;;;;
2019/10/15 03:08:58;;;;;;;7.6;5.3;;;;;;;;;;;;;
2019/10/15 03:11:23;;;;;;;8.2;5.7;;;;;;;;;;;;;
2019/10/15 03:13:48;;;;;;;11;5.6;;;;;;;;;;;;;
2019/10/15 03:16:13;;;;;;;8.1;5.5;;;;;;;;;;;;;
2019/10/15 03:18:39;;;;;;;9.4;5.7;;;;;;;;;;;;;
2019/10/15 03:21:04;;;;;;;8.1;5.4;;;;;;;;;;;;;
2019/10/15 03:23:29;;;;;;;9.2;5.6;;;;;;;;;;;;;
2019/10/15 03:25:54;;;;;;;8.8;5.6;;;;;;;;;;;;;
2019/10/15 03:28:19;;;;;;;7.7;5.3;;;;;;;;;;;;;
2019/10/15 03:30:44;;;;;;;8.4;5.7;;;;;;;;;;;;;
2019/10/15 03:33:09;;;;;;;8.3;5.4;;;;;;;;;;;;;
2019/10/15 03:35:34;;;;;;;10.3;5.5;;;;;;;;;;;;;
2019/10/15 03:37:59;;;;;;;8.9;5.1;;;;;;;;;;;;;
2019/10/15 03:40:25;;;;;;;8.3;5.5;;;;;;;;;;;;;
2019/10/15 03:42:50;;;;;;;9.9;5.5;;;;;;;;;;;;;
2019/10/15 03:45:15;;;;;;;9.7;5.5;;;;;;;;;;;;;
2019/10/15 03:47:40;;;;;;;7.9;5.4;;;;;;;;;;;;;
2019/10/15 03:50:05;;;;;;;11.4;5.5;;;;;;;;;;;;;
2019/10/15 03:52:30;;;;;;;8.1;5.5;;;;;;;;;;;;;
2019/10/15 03:54:55;;;;;;;8.5;5.3;;;;;;;;;;;;;
2019/10/15 03:57:21;;;;;;;9.5;5.4;;;;;;;;;;;;;
2019/10/15 03:59:46;;;;;;;9;5.5;;;;;;;;;;;;;
2019/10/15 04:02:28;;;;;;;8.1;5.3;;;;;;;13.82;90.67383;993.5948;;;;
2019/10/15 04:04:53;;;;;;;10.1;5.7;;;;;;;13.9;90.32129;993.5758;;;;
2019/10/15 04:07:18;;;;;;;10.3;5.5;;;;;;;13.96;89.73438;993.4649;;;;
2019/10/15 04:09:43;;;;;;;7.9;5.2;;;;;;;13.96;89.56348;993.4634;;;;
2019/10/15 04:12:08;;;;;;;8.3;5.4;;;;;;;14.04;88.89746;993.4001;;;;
2019/10/15 04:14:33;;;;;;;10.1;5.4;;;;;;;14.1;88.75781;993.4321;;;;
2019/10/15 04:16:58;;;;;;;8.9;5.3;;;;;;;14.02;88.98438;993.4138;;;;
2019/10/15 04:19:23;;;;;;;9.9;5.1;;;;;;;14.09;88.68848;993.4728;;;;
2019/10/15 04:21:48;;;;;;;7.5;5.3;;;;;;;14.09;88.52734;993.4706;;;;
2019/10/15 04:24:13;;;;;;;8.3;5.6;;;;;;;14.09;88.46973;993.4468;;;;
2019/10/15 04:26:39;;;;;;;9.8;5.3;;;;;;;14.1;88.43652;993.3858;;;;
2019/10/15 04:29:04;;;;;;;9.1;5.4;;;;;;;14.09;88.52734;993.3645;;;;
2019/10/15 04:31:29;;;;;;;7.6;5.4;;;;;;;14.11;88.27734;993.3621;;;;
2019/10/15 04:33:54;;;;;;;7.4;5.2;;;;;;;14.07;88.4873;993.3281;;;;
2019/10/15 04:36:19;;;;;;;9.7;5.4;;;;;;;14.15;87.99609;993.2693;;;;
2019/10/15 04:38:44;;;;;;;13.1;5.5;;;;;;;14.27;87.00488;993.1605;;;;
2019/10/15 04:41:09;;;;;;;8.7;5.3;;;;;;;14.34;86.29004;993.1523;;;;
2019/10/15 04:43:34;;;;;;;7.6;4.7;;;;;;;14.42;85.74023;993.1403;;;;
2019/10/15 04:45:59;;;;;;;9.5;5.1;;;;;;;14.6;84.51758;993.1119;;;;
2019/10/15 04:48:25;;;;;;;9.2;5;;;;;;;14.6;84.30957;993.0211;;;;
2019/10/15 04:50:50;;;;;;;10.1;4.9;;;;;;;14.64;84.22266;993.0524;;;;
2019/10/15 04:53:15;;;;;;;7.9;4.8;;;;;;;14.59;84.49121;993.0255;;;;
2019/10/15 04:55:40;;;;;;;8.7;5;;;;;;;14.56;84.63574;993.0173;;;;
2019/10/15 04:58:05;;;;;;;9.6;5.4;;;;;;;14.51;84.84668;992.9785;;;;
2019/10/15 05:00:30;;;;;;;9.1;5.3;;;;;;;14.47;84.9541;992.9533;;;;
2019/10/15 05:02:55;;;;;;;8.1;5;;;;;;;14.47;84.84766;992.9449;;;;
2019/10/15 05:05:21;;;;;;;8.6;4.9;;;;;;;14.45;84.90234;992.9247;;;;
2019/10/15 05:07:46;;;;;;;7.1;5;;;;;;;14.42;85.17383;992.8475;;;;
2019/10/15 05:10:11;;;;;;;9.8;4.9;;;;;;;14.46;84.89453;992.8144;;;;
2019/10/15 05:12:36;;;;;;;9.1;5.1;;;;;;;14.44;84.91406;992.788;;;;
2019/10/15 05:15:01;;;;;;;8.4;5.2;;;;;;;14.31;85.66113;992.7219;;;;
2019/10/15 05:17:26;;;;;;;8.8;5.1;;;;;;;14.27;85.68848;992.7226;;;;
2019/10/15 05:19:51;;;;;;;8;5.1;;;;;;;14.23;85.93359;992.6436;;;;
2019/10/15 05:22:16;;;;;;;11.2;5.1;;;;;;;14.18;86.09766;992.5792;;;;
2019/10/15 05:24:41;;;;;;;8.5;5.1;;;;;;;14.14;86.20508;992.4561;;;;
2019/10/15 05:27:07;;;;;;;7.2;4.8;;;;;;;14.14;86.10254;992.4455;;;;
2019/10/15 05:29:32;;;;;;;9.9;5;;;;;;;14.16;86.03516;992.4451;;;;
2019/10/15 05:31:57;;;;;;;9.3;5.4;;;;;;;14.24;85.50977;992.4533;;;;
2019/10/15 05:34:22;;;;;;;8.9;5.1;;;;;;;14.27;85.19238;992.4719;;;;
2019/10/15 05:36:47;;;;;;;9;5.3;;;;;;;14.29;85.0918;992.4777;;;;
2019/10/15 05:39:12;;;;;;;8.6;5.2;;;;;;;14.38;84.40332;992.416;;;;
2019/10/15 05:41:37;;;;;;;9.8;5;;;;;;;14.45;84.1416;992.3943;;;;
2019/10/15 05:44:02;;;;;;;9.5;5;;;;;;;14.53;83.7168;992.4437;;;;
2019/10/15 05:46:27;;;;;;;8.7;5.4;;;;;;;14.52;83.91113;992.5144;;;;
2019/10/15 05:48:52;;;;;;;8.7;5;;;;;;;14.5;84.01172;992.5481;;;;
2019/10/15 05:51:17;;;;;;;10.6;5;;;;;;;14.43;84.37891;992.61;;;;
2019/10/15 05:53:42;;;;;;;7.7;5.1;;;;;;;14.43;84.58691;992.6691;;;;
2019/10/15 05:56:08;;;;;;;10.9;5.7;;;;;;;14.42;84.8291;992.6786;;;;
2019/10/15 05:58:33;;;;;;;9.3;6.2;;;;;;;14.44;84.83105;992.7163;;;;
2019/10/15 06:00:58;;;;;;;11.8;6.1;;;;;;;14.43;84.7832;992.7917;;;;
2019/10/15 06:03:23;;;;;;;9.4;5.3;;;;;;;14.45;84.75195;992.7834;;;;
2019/10/15 06:05:48;;;;;;;7.9;5.2;;;;;;;14.41;84.97559;992.7459;;;;
2019/10/15 06:08:13;;;;;;;7.8;5.3;;;;;;;14.43;84.93359;992.6794;;;;
2019/10/15 06:10:38;;;;;;;10.7;5.3;;;;;;;14.43;84.97949;992.5892;;;;
2019/10/15 06:13:04;;;;;;;10;5.3;;;;;;;14.46;84.81152;992.5936;;;;
2019/10/15 06:15:29;;;;;;;9.9;5.2;;;;;;;14.54;84.61914;992.6317;;;;
2019/10/15 06:17:54;;;;;;;8.3;5.2;;;;;;;14.51;84.63672;992.6459;;;;
2019/10/15 06:20:19;;;;;;;7.6;5.1;;;;;;;14.54;84.5752;992.6175;;;;
2019/10/15 06:22:44;;;;;;;9.7;5.3;;;;;;;14.62;84.20898;992.6164;;;;
2019/10/15 06:25:23;;;;;;;9.4;5.5;;;;;;;14.64;84.13184;992.6502;;;;
2019/10/15 06:27:48;;;;;;;10.1;5.4;;;;;;;14.69;83.89941;992.6656;;;;
2019/10/15 06:30:13;;;;;;;8.2;5.3;;;;;;;14.73;83.52539;992.7417;;;;
2019/10/15 06:32:38;;;;;;;7.8;5.1;;;;;;;14.8;83.24805;992.7477;;;;
2019/10/15 06:35:03;;;;;;;8.2;5;;;;;;;14.89;83.11523;992.767;;;;
2019/10/15 06:37:28;;;;;;;9.7;5.5;;;;;;;14.95;83;992.7839;;;;
2019/10/15 06:39:54;;;;;;;8.9;5.3;;;;;;;15.03;82.7832;992.8167;;;;
2019/10/15 06:42:19;;;;;;;11.4;5.2;;;;;;;15.1;82.93457;992.8772;;;;
2019/10/15 06:44:44;;;;;;;9;5;;;;;;;15.14;83.20898;992.8647;;;;
2019/10/15 06:47:09;;;;;;;8;5.3;;;;;;;15.11;83.63184;992.8734;;;;
2019/10/15 06:49:34;;;;;;;10.7;5.6;;;;;;;15.22;83.59473;992.9016;;;;
2019/10/15 06:51:59;;;;;;;7.8;5.3;;;;;;;15.45;82.93359;992.9459;;;;
2019/10/15 06:54:24;;;;;;;13.4;7.8;;;;;;;15.58;82.23926;992.9753;;;;
2019/10/15 06:56:49;;;;;;;13.1;8.2;;;;;;;15.75;81.91211;992.9989;;;;
2019/10/15 06:59:14;;;;;;;10;5.4;;;;;;;15.85;81.65234;992.9972;;;;
2019/10/15 07:01:40;;;;;;;10.7;5.3;;;;;;;15.76;82.0293;993.0195;;;;
2019/10/15 07:04:05;;;;;;;9.4;5.1;;;;;;;15.74;81.75781;992.9113;;;;
2019/10/15 07:06:30;;;;;;;9.7;5.4;;;;;;;15.93;80.99512;992.8728;;;;
2019/10/15 07:08:55;;;;;;;9.8;5.2;;;;;;;16.01;80.39648;992.8303;;;;
2019/10/15 07:11:20;;;;;;;10.8;5.5;;;;;;;16.15;79.95898;992.8209;;;;
2019/10/15 07:13:45;;;;;;;7.4;5.1;;;;;;;16.38;78.87402;992.7583;;;;
2019/10/15 07:16:10;;;;;;;8.9;5.1;;;;;;;16.74;77.25488;992.726;;;;
2019/10/15 07:18:35;;;;;;;8;4.9;;;;;;;17.56;74.2002;992.7115;;;;
2019/10/15 07:21:00;;;;;;;7.3;4.8;;;;;;;18.12;71.73145;992.793;;;;
2019/10/15 07:23:25;;;;;;;7.9;5;;;;;;;18.17;71.21484;992.8303;;;;
2019/10/15 07:25:50;;;;;;;8.2;4.9;;;;;;;17.92;72.00195;992.8059;;;;
2019/10/15 07:28:16;;;;;;;9.2;5.3;;;;;;;17.82;73.125;992.7168;;;;
2019/10/15 07:30:41;;;;;;;7.8;4.7;;;;;;;17.76;72.69727;992.686;;;;
2019/10/15 07:33:06;;;;;;;8.9;5.2;;;;;;;17.66;73.60059;992.671;;;;
2019/10/15 07:35:31;;;;;;;8.6;5;;;;;;;17.66;73.07715;992.6774;;;;
2019/10/15 07:37:56;;;;;;;8.8;4.7;;;;;;;17.59;73.44727;992.5648;;;;
2019/10/15 07:40:21;;;;;;;23.3;11.4;;;;;;;17.7;73.61816;992.4748;;;;
2019/10/15 07:42:46;;;;;;;8.2;4.8;;;;;;;17.83;72.97852;992.5019;;;;
2019/10/15 07:45:12;;;;;;;8.1;5;;;;;;;17.88;72.89258;992.5435;;;;
2019/10/15 07:47:37;;;;;;;9.4;5.1;;;;;;;17.86;72.83008;992.5042;;;;
2019/10/15 07:50:02;;;;;;;8.5;5.1;;;;;;;17.83;72.77734;992.4762;;;;
2019/10/15 07:52:27;;;;;;;10.3;6;;;;;;;18.04;72.05664;992.5341;;;;
2019/10/15 07:54:52;;;;;;;7.9;4.7;;;;;;;18.39;71.01855;992.5047;;;;
2019/10/15 07:57:17;;;;;;;8.3;4.6;;;;;;;19.3;67.32227;992.6135;;;;
2019/10/15 07:59:43;;;;;;;10.1;4.9;;;;;;;20.23;64.0127;992.6;;;;
2019/10/15 08:02:08;;;;;;;8;4.5;;;;;;;21.5;59.88867;992.452;;;;
2019/10/15 08:04:33;;;;;;;9.6;4.2;;;;;;;21.42;58.80859;992.3981;;;;
2019/10/15 08:06:58;;;;;;;8.8;4.3;;;;;;;21.73;58.22754;992.3237;;;;
2019/10/15 08:09:23;;;;;;;8.8;4.2;;;;;;;21.8;57.6377;992.2899;;;;
2019/10/15 08:11:49;;;;;;;9.1;4.2;;;;;;;23.18;55.14258;992.3244;;;;
2019/10/15 08:14:14;;;;;;;10.8;4.4;;;;;;;22.92;54.55664;992.405;;;;
2019/10/15 08:16:39;;;;;;;7.9;4.1;;;;;;;22.96;54.53711;992.5416;;;;
2019/10/15 08:19:04;;;;;;;11;5.8;;;;;;;22.92;54.78027;992.7672;;;;
2019/10/15 08:21:29;;;;;;;7.7;4.1;;;;;;;23.25;53.60742;992.7729;;;;
2019/10/15 08:23:55;;;;;;;8;3.8;;;;;;;24.74;49.69531;992.8432;;;;
2019/10/15 08:26:20;;;;;;;8.7;4.1;;;;;;;25.78;44.95215;992.853;;;;
2019/10/15 08:28:45;;;;;;;8.5;3.5;;;;;;;26.32;44.81641;992.7498;;;;
2019/10/15 08:31:11;;;;;;;9.6;3.9;;;;;;;26.05;45.6084;992.7728;;;;
2019/10/15 08:33:36;;;;;;;8.7;3.2;;;;;;;27.48;42.4707;992.7879;;;;
2019/10/15 08:36:01;;;;;;;9.3;3.6;;;;;;;25.74;44.66309;992.8234;;;;
2019/10/15 08:38:26;;;;;;;6.8;3.8;;;;;;;24.87;47.63965;992.9313;;;;
2019/10/15 08:40:51;;;;;;;7.6;3.7;;;;;;;25.23;47.25293;993.1191;;;;
2019/10/15 08:43:16;;;;;;;6.1;3.6;;;;;;;26.9;43.40137;993.0729;;;;
2019/10/15 08:45:42;;;;;;;7.6;4;;;;;;;26.99;42.24512;992.9844;;;;
2019/10/15 08:48:07;;;;;;;7.7;3.7;;;;;;;25.33;47.51172;993.1319;;;;
2019/10/15 08:50:32;;;;;;;8.1;4.4;;;;;;;25.67;45.14258;993.1936;;;;
2019/10/15 08:52:57;;;;;;;10.8;5;;;;;;;24.74;47.98047;993.2127;;;;
2019/10/15 08:55:22;;;;;;;12.3;4.5;;;;;;;24.34;49.92285;993.2324;;;;
2019/10/15 08:57:48;;;;;;;9.2;4.3;;;;;;;24.35;49.87598;993.2468;;;;
2019/10/15 09:00:13;;;;;;;8.1;4.4;;;;;;;23.59;52.18555;993.3555;;;;
2019/10/15 09:02:38;;;;;;;9.6;4.8;;;;;;;22.53;55.66211;993.4655;;;;
2019/10/15 09:05:03;;;;;;;14;4.9;;;;;;;20.96;60.96289;993.5639;;;;
2019/10/15 09:07:28;;;;;;;10;4.5;;;;;;;20.18;63.62891;993.5306;;;;
2019/10/15 09:09:53;;;;;;;10;4.7;;;;;;;20.04;64.76855;993.5597;;;;
2019/10/15 09:12:19;;;;;;;8.1;4.8;;;;;;;20.06;64.70117;993.5966;;;;
2019/10/15 09:14:43;;;;;;;9.8;4.6;;;;;;;19.87;64.81445;993.7058;;;;
2019/10/15 09:17:09;;;;;;;10.6;4.8;;;;;;;20.11;64.12109;993.6903;;;;
2019/10/15 09:19:34;;;;;;;11.2;4.6;;;;;;;20.99;60.6748;993.6711;;;;
2019/10/15 09:21:59;;;;;;;11.1;4.9;;;;;;;21.46;58.9082;993.5619;;;;
2019/10/15 09:24:24;;;;;;;10.5;4.8;;;;;;;22.11;56.9834;993.6189;;;;
2019/10/15 09:26:49;;;;;;;10;4.6;;;;;;;22.29;56.27832;993.6495;;;;
2019/10/15 09:29:14;;;;;;;9.6;4.7;;;;;;;22.9;54.90723;993.6508;;;;
2019/10/15 09:31:39;;;;;;;11.7;5.4;;;;;;;22.19;56.66504;993.6746;;;;
2019/10/15 09:34:05;;;;;;;17.6;5.5;;;;;;;22.26;56.50879;993.6409;;;;
2019/10/15 09:36:30;;;;;;;11.2;5.7;;;;;;;22.22;57.25781;993.5426;;;;
2019/10/15 09:38:55;;;;;;;9.4;4.8;;;;;;;21.25;59.34863;993.5795;;;;
2019/10/15 09:41:20;;;;;;;9.8;4.8;;;;;;;21.34;58.07031;993.6635;;;;
2019/10/15 09:43:45;;;;;;;12.2;4.8;;;;;;;20.85;59.96387;993.6658;;;;
2019/10/15 09:46:10;;;;;;;9.5;4.7;;;;;;;20.32;61.50879;993.6912;;;;
2019/10/15 09:48:36;;;;;;;9.1;4.8;;;;;;;20.15;62.61816;993.7366;;;;
2019/10/15 09:51:01;;;;;;;12.9;5;;;;;;;20.65;61.36621;993.7729;;;;
2019/10/15 09:53:26;;;;;;;9.8;5.1;;;;;;;21.22;59.76758;993.7592;;;;
2019/10/15 09:55:51;;;;;;;7;4.8;;;;;;;21.14;60.2959;993.7639;;;;
2019/10/15 09:58:16;;;;;;;13;5.3;;;;;;;21.45;59.22363;993.8113;;;;
2019/10/15 10:00:42;;;;;;;11.8;5.3;;;;;;;21.09;60.78223;993.8089;;;;
2019/10/15 10:03:07;;;;;;;9.7;5.1;;;;;;;20.75;62.09473;993.9176;;;;
2019/10/15 10:05:32;;;;;;;9;5.7;;;;;;;19.88;65.4707;993.8758;;;;
2019/10/15 10:07:57;;;;;;;11.6;6.3;;;;;;;19.64;66.08789;993.9708;;;;
2019/10/15 10:10:22;;;;;;;11.6;6.8;;;;;;;19.26;68.00488;993.9088;;;;
2019/10/15 10:12:47;;;;;;;15.5;7.1;;;;;;;19.29;68.0332;993.897;;;;
2019/10/15 10:15:12;;;;;;;13.7;6.9;;;;;;;19.44;67.83496;993.8779;;;;
2019/10/15 10:17:38;;;;;;;12.9;7;;;;;;;19.47;67.99121;993.9125;;;;
2019/10/15 10:20:03;;;;;;;12.3;7.3;;;;;;;18.96;70.04883;993.9348;;;;
2019/10/15 10:22:28;;;;;;;12.8;6.7;;;;;;;19.05;70.30762;993.9691;;;;
2019/10/15 10:24:53;;;;;;;13.1;7.1;;;;;;;19.03;70.38574;993.9433;;;;
2019/10/15 10:27:18;;;;;;;11.3;7.5;;;;;;;18.77;71.94238;993.9044;;;;
2019/10/15 10:29:44;;;;;;;15.1;7.9;;;;;;;18.84;72.15234;993.92;;;;
2019/10/15 10:32:09;;;;;;;13.4;8.1;;;;;;;18.58;73.62695;993.8524;;;;
2019/10/15 10:34:34;;;;;;;17.4;8.7;;;;;;;18.5;74.46387;993.7642;;;;
2019/10/15 10:36:59;;;;;;;12.5;7.9;;;;;;;18.51;74.88477;993.8042;;;;
2019/10/15 10:39:24;;;;;;;14.7;8.4;;;;;;;18.48;75.37012;993.8247;;;;
2019/10/15 10:41:49;;;;;;;14.3;8.1;;;;;;;18.6;75.12305;993.8176;;;;
2019/10/15 10:44:14;;;;;;;14.2;8.7;;;;;;;18.48;76.13965;993.7921;;;;
2019/10/15 10:46:40;;;;;;;15.8;8.6;;;;;;;18.57;75.87598;993.7839;;;;
2019/10/15 10:49:05;;;;;;;12.4;8.5;;;;;;;18.41;76.80273;993.7841;;;;
2019/10/15 10:51:30;;;;;;;12.5;7.9;;;;;;;18.33;77.38477;993.7516;;;;
2019/10/15 10:53:55;;;;;;;14.4;8.1;;;;;;;18.47;77.26855;993.7059;;;;
2019/10/15 10:56:21;;;;;;;11.8;7.2;;;;;;;18.6;76.87207;993.7224;;;;
2019/10/15 10:58:46;;;;;;;12.4;7.6;;;;;;;18.67;77.10449;993.7279;;;;
2019/10/15 11:01:12;;;;;;;15.3;8;;;;;;;18.6;77.14063;993.6965;;;;
2019/10/15 11:03:37;;;;;;;10.9;7.2;;;;;;;18.87;76.08984;993.6724;;;;
2019/10/15 11:06:02;;;;;;;12.9;7.3;;;;;;;18.8;76.40332;993.6457;;;;
2019/10/15 11:08:27;;;;;;;14.1;6.9;;;;;;;19;75.82129;993.7192;;;;
2019/10/15 11:10:52;;;;;;;11.1;7.1;;;;;;;19.26;74.69629;993.696;;;;
2019/10/15 11:13:17;;;;;;;12.8;6.7;;;;;;;19.19;74.66211;993.6948;;;;
2019/10/15 11:15:42;;;;;;;14.8;7;;;;;;;19.15;74.66797;993.6403;;;;
2019/10/15 11:18:07;;;;;;;14.1;7;;;;;;;19.42;73.75391;993.668;;;;
2019/10/15 11:20:32;;;;;;;13.6;6.7;;;;;;;19.68;72.72363;993.6752;;;;
2019/10/15 11:22:57;;;;;;;10.8;6;;;;;;;19.54;71.77539;993.6348;;;;
2019/10/15 11:25:22;;;;;;;11.6;5.7;;;;;;;19.96;70.61621;993.6192;;;;
2019/10/15 11:27:48;;;;;;;10.7;5.2;;;;;;;20.19;69.63379;993.6216;;;;
2019/10/15 11:30:13;;;;;;;8.3;4.5;;;;;;;20.28;68.29199;993.6141;;;;
2019/10/15 11:32:38;;;;;;;8.8;5.2;;;;;;;20.7;67.01953;993.7098;;;;
2019/10/15 11:35:03;;;;;;;7.5;4.3;;;;;;;20.98;65.9248;993.7548;;;;
2019/10/15 11:37:28;;;;;;;8.2;4.1;;;;;;;20.88;66.01563;993.6727;;;;
2019/10/15 11:39:53;;;;;;;10;4.3;;;;;;;20.68;66.4668;993.6206;;;;
2019/10/15 11:42:18;;;;;;;8.3;4.2;;;;;;;20.75;66.39551;993.5703;;;;
2019/10/15 11:44:43;;;;;;;8.9;4.8;;;;;;;20.58;67.24902;993.528;;;;
2019/10/15 11:47:08;;;;;;;7.3;4;;;;;;;20.53;67.1709;993.5326;;;;
2019/10/15 11:49:34;;;;;;;7;3.5;;;;;;;20.26;67.27051;993.553;;;;
2019/10/15 11:51:59;;;;;;;6.1;3.6;;;;;;;20.24;67.5;993.4995;;;;
2019/10/15 11:54:24;;;;;;;5.2;3.1;;;;;;;20.19;66.68555;993.4642;;;;
2019/10/15 11:56:49;;;;;;;5.3;2.5;;;;;;;20.12;64.94434;993.5179;;;;
2019/10/15 11:59:14;;;;;;;3.8;2.2;;;;;;;20.15;64.5498;993.5007;;;;
2019/10/15 12:01:39;;;;;;;3.4;1.9;;;;;;;20;64.78418;993.4614;;;;
2019/10/15 12:04:04;;;;;;;3.4;1.8;;;;;;;19.69;65.12695;993.4653;;;;
2019/10/15 12:06:30;;;;;;;2.8;1.7;;;;;;;19.61;65.6875;993.5303;;;;
2019/10/15 12:08:55;;;;;;;3.4;2;;;;;;;19.35;66.29102;993.4545;;;;
2019/10/15 12:11:20;;;;;;;3.6;1.9;;;;;;;19.2;67.21387;993.5553;;;;
2019/10/15 12:13:45;;;;;;;5;2;;;;;;;19.21;67.19141;993.4799;;;;
2019/10/15 12:16:10;;;;;;;4.6;2;;;;;;;19.36;66.49121;993.546;;;;
2019/10/15 12:18:35;;;;;;;5.1;3.9;;;;;;;19.25;67.1875;993.5016;;;;
2019/10/15 12:21:00;;;;;;;2.8;1.5;;;;;;;19.44;65.90625;993.3998;;;;
2019/10/15 12:23:25;;;;;;;5.8;2.1;;;;;;;19.15;67.26367;993.4059;;;;
2019/10/15 12:25:51;;;;;;;2.8;1.8;;;;;;;19.28;67.20313;993.4711;;;;
2019/10/15 12:28:16;;;;;;;4.7;1.8;;;;;;;19.21;66.67773;993.5411;;;;
2019/10/15 12:30:41;;;;;;;2.9;1.5;;;;;;;19.23;66.08496;993.5931;;;;
2019/10/15 12:33:06;;;;;;;3.9;1.7;;;;;;;19.23;66.27246;993.6331;;;;
2019/10/15 12:35:31;;;;;;;3.5;1.7;;;;;;;19.21;66.3623;993.704;;;;
2019/10/15 12:37:56;;;;;;;2.4;1.3;;;;;;;19.3;66.36426;993.7048;;;;
2019/10/15 12:40:21;;;;;;;2.9;1.5;;;;;;;19.38;65.50098;993.6841;;;;
2019/10/15 12:42:46;;;;;;;4.1;1.5;;;;;;;19.42;64.89844;993.7892;;;;
2019/10/15 12:45:11;;;;;;;2.5;1.5;;;;;;;19.6;64.50391;993.7969;;;;
2019/10/15 12:47:36;;;;;;;2.5;1.3;;;;;;;19.51;65.21582;993.8705;;;;
2019/10/15 12:50:02;;;;;;;2.1;1.5;;;;;;;19.72;63.79688;993.7781;;;;
2019/10/15 12:52:27;;;;;;;3;1.5;;;;;;;19.74;63.40332;993.8194;;;;
2019/10/15 12:54:52;;;;;;;3.4;1.5;;;;;;;19.63;63.99512;993.7048;;;;
2019/10/15 12:57:17;;;;;;;3.5;1.2;;;;;;;20;63.18164;993.6268;;;;
2019/10/15 12:59:42;;;;;;;2.4;1.3;;;;;;;20.05;62.21875;993.5889;;;;
2019/10/15 13:02:07;;;;;;;1.8;1.2;;;;;;;20.07;61.61426;993.5948;;;;
2019/10/15 13:04:32;;;;;;;1.4;1.1;;;;;;;19.85;62.33203;993.5248;;;;
2019/10/15 13:06:57;;;;;;;1.8;1.1;;;;;;;19.62;63.26758;993.5578;;;;
2019/10/15 13:09:22;;;;;;;3.1;1.5;;;;;;;19.68;62.79883;993.5883;;;;
2019/10/15 13:11:48;;;;;;;1.8;1.4;;;;;;;19.53;63.68848;993.6788;;;;
2019/10/15 13:14:13;;;;;;;2;1.2;;;;;;;19.59;63.5332;993.762;;;;
2019/10/15 13:16:38;;;;;;;2.3;1.3;;;;;;;19.62;64.13281;993.8055;;;;
2019/10/15 13:19:03;;;;;;;4.6;1.4;;;;;;;19.58;63.90723;993.7631;;;;
2019/10/15 13:21:28;;;;;;;4.3;1.7;;;;;;;19.67;64.10645;993.8606;;;;
2019/10/15 13:23:53;;;;;;;3.7;1.3;;;;;;;19.64;63.62207;993.9771;;;;
2019/10/15 13:26:18;;;;;;;3.1;1.3;;;;;;;19.7;63.47949;994.0419;;;;
2019/10/15 13:28:44;;;;;;;2.6;1.4;;;;;;;19.43;64.55078;993.9459;;;;
2019/10/15 13:31:08;;;;;;;1.8;1.3;;;;;;;19.39;64.6377;993.9064;;;;
2019/10/15 13:33:33;;;;;;;2.8;1.3;;;;;;;19.09;65.57422;993.8448;;;;
2019/10/15 13:35:58;;;;;;;2.7;1.5;;;;;;;19.16;65.20996;993.8345;;;;
2019/10/15 13:38:23;;;;;;;2.1;1.5;;;;;;;19.13;65.00781;993.899;;;;
2019/10/15 13:40:49;;;;;;;2.8;1.1;;;;;;;19.34;65.17969;993.9359;;;;
2019/10/15 13:43:14;;;;;;;2.6;1.2;;;;;;;19.22;64.95117;994.0298;;;;
2019/10/15 13:45:39;;;;;;;2.4;1.4;;;;;;;18.93;65.5166;993.9714;;;;
2019/10/15 13:48:04;;;;;;;2.3;1.1;;;;;;;19.07;64.90625;994.0294;;;;
2019/10/15 13:50:29;;;;;;;1.3;1.1;;;;;;;18.91;65.5;994.0919;;;;
2019/10/15 13:52:54;;;;;;;1.3;1;;;;;;;19.05;65.4043;994.1399;;;;
2019/10/15 13:55:19;;;;;;;1.7;1.2;;;;;;;18.88;65.76563;994.1312;;;;
2019/10/15 13:57:44;;;;;;;1.1;1;;;;;;;18.88;65.71777;994.0889;;;;
2019/10/15 14:00:09;;;;;;;3;1;;;;;;;18.91;65.94336;994.1108;;;;
2019/10/15 14:02:34;;;;;;;1.9;1.4;;;;;;;18.78;65.95898;994.1696;;;;
2019/10/15 14:05:00;;;;;;;3.6;1.9;;;;;;;18.75;66.63184;994.1223;;;;
2019/10/15 14:07:25;;;;;;;1.8;1.4;;;;;;;18.99;65.60645;994.1609;;;;
2019/10/15 14:09:50;;;;;;;1.4;1;;;;;;;18.97;65.25391;994.1724;;;;
2019/10/15 14:12:15;;;;;;;1.3;1.1;;;;;;;18.76;65.61816;994.1612;;;;
2019/10/15 14:14:40;;;;;;;4.4;1.6;;;;;;;18.86;65.64453;994.2526;;;;
2019/10/15 14:17:05;;;;;;;3.7;2.4;;;;;;;18.71;66.26465;994.1805;;;;
2019/10/15 14:19:30;;;;;;;1.9;1.3;;;;;;;18.88;64.84277;994.1517;;;;
2019/10/15 14:21:55;;;;;;;2.1;1.1;;;;;;;18.91;64.70605;994.1022;;;;
2019/10/15 14:24:21;;;;;;;2;1.3;;;;;;;18.96;64.49219;994.1177;;;;
2019/10/15 14:26:46;;;;;;;1.6;1.2;;;;;;;18.9;64.63477;994.1312;;;;
2019/10/15 14:29:11;;;;;;;3.9;1.9;;;;;;;18.82;65.10254;994.1702;;;;
2019/10/15 14:31:36;;;;;;;2.1;1.3;;;;;;;18.85;65.7832;994.1589;;;;
2019/10/15 14:34:01;;;;;;;3;1.9;;;;;;;18.63;67.39551;994.1267;;;;
2019/10/15 14:36:26;;;;;;;2.1;1.2;;;;;;;18.82;66.38574;994.0742;;;;
2019/10/15 14:38:51;;;;;;;1.1;1;;;;;;;18.85;66.2959;994.1365;;;;
2019/10/15 14:41:16;;;;;;;1.8;1.1;;;;;;;18.84;66.36523;994.1736;;;;
2019/10/15 14:43:41;;;;;;;1.3;1;;;;;;;18.63;67.30273;994.1564;;;;
2019/10/15 14:46:06;;;;;;;1.9;1.1;;;;;;;18.41;67.76953;994.0747;;;;
2019/10/15 14:48:32;;;;;;;1.2;1.1;;;;;;;18.33;67.89648;994.0963;;;;
2019/10/15 14:50:57;;;;;;;1.5;0.8;;;;;;;18.33;67.3252;994.1003;;;;
2019/10/15 14:53:22;;;;;;;1.9;1.1;;;;;;;18.37;67.21582;994.0762;;;;
2019/10/15 14:55:47;;;;;;;1.3;0.9;;;;;;;18.26;67.32715;994.0969;;;;
2019/10/15 14:58:12;;;;;;;1.2;0.9;;;;;;;18.25;67.11621;994.0317;;;;
2019/10/15 15:00:37;;;;;;;1.1;0.8;;;;;;;18.03;67.31543;993.9906;;;;
2019/10/15 15:03:02;;;;;;;1.6;1;;;;;;;17.99;68.66016;994.016;;;;
2019/10/15 15:05:27;;;;;;;1.1;1;;;;;;;17.96;69.30859;994.0595;;;;
2019/10/15 15:07:52;;;;;;;1.4;0.9;;;;;;;17.96;69.31836;994.0737;;;;
2019/10/15 15:10:17;;;;;;;1.8;0.7;;;;;;;17.84;69.17188;994.1434;;;;
2019/10/15 15:12:42;;;;;;;0.8;0.8;;;;;;;17.8;69.79297;994.1106;;;;
2019/10/15 15:15:07;;;;;;;1.1;0.7;;;;;;;17.77;70.38281;994.1236;;;;
2019/10/15 15:17:33;;;;;;;0.9;0.7;;;;;;;17.8;70.7959;994.118;;;;
2019/10/15 15:19:58;;;;;;;1.9;0.8;;;;;;;17.73;70.71484;994.0773;;;;
2019/10/15 15:22:25;;;;;;;0.8;0.8;;;;;;;17.59;71.27148;994.0751;;;;